createdAt,value
2023-03-29T05:00:28.743Z,1
2023-03-29T05:15:31.303Z,4.1
2023-03-29T05:30:28.066Z,7.2
2023-03-29T05:45:28.505Z,19.2
2023-03-29T06:00:28.014Z,29.8
2023-03-29T06:15:28.630Z,42.2
2023-03-29T06:30:28.413Z,47.2
2023-03-29T06:45:29.301Z,78.1
2023-03-29T07:00:28.471Z,99.5
2023-03-29T07:15:28.074Z,103
2023-03-29T07:30:30.273Z,150.6
2023-03-29T07:45:28.025Z,151.6
2023-03-29T08:00:28.696Z,134.2
2023-03-29T08:15:28.639Z,126.9
2023-03-29T08:30:28.234Z,128.4
2023-03-29T08:45:28.236Z,152.4
2023-03-29T09:00:28.117Z,162.3
2023-03-29T09:15:28.136Z,144
2023-03-29T09:30:27.793Z,183.6
2023-03-29T09:45:27.897Z,190.8
2023-03-29T10:00:28.700Z,175.5
2023-03-29T10:15:30.142Z,198.6
2023-03-29T10:30:28.049Z,191.5
2023-03-29T10:45:27.672Z,208.5
2023-03-29T11:00:28.390Z,177.5
2023-03-29T11:15:27.918Z,210.9
2023-03-29T11:30:27.893Z,166.1
2023-03-29T11:45:28.482Z,175.1
2023-03-29T12:00:27.951Z,143.3
2023-03-29T12:15:28.017Z,183.1
2023-03-29T12:30:28.096Z,263.9
2023-03-29T12:45:28.736Z,224.1
2023-03-29T13:00:28.992Z,191.6
2023-03-29T13:15:28.165Z,303.1
2023-03-29T13:30:27.956Z,245.7
2023-03-29T13:45:28.384Z,289
2023-03-29T14:00:27.843Z,332
2023-03-29T14:15:28.499Z,664.8
2023-03-29T14:30:28.214Z,135.7
2023-03-29T14:45:27.816Z,83.5
2023-03-29T15:00:27.898Z,58.8
2023-03-29T15:15:27.497Z,42.4
2023-03-29T15:30:27.819Z,50.8
2023-03-29T15:45:27.844Z,57.2
2023-03-29T16:00:28.154Z,42.1
2023-03-29T16:15:27.901Z,41
2023-03-29T16:30:28.438Z,24.8
2023-03-29T16:45:28.013Z,18.8
2023-03-29T17:00:28.161Z,13.2
2023-03-29T17:15:27.782Z,7.2
2023-03-29T17:30:28.222Z,3.4
2023-03-29T17:45:27.989Z,1
2023-03-29T18:00:28.262Z,1
2023-03-29T18:15:27.498Z,1
2023-03-29T18:30:28.348Z,1
